Time;durP1;ratioP1;P1;durP2;ratioP2;P2;SDS_P1;SDS_P2;PMS_P1;PMS_P2;Temp;Humidity;BMP_temperature;BMP_pressure;BME280_temperature;BME280_humidity;BME280_pressure;Samples;Min_cycle;Max_cycle;Signal;HPM_P1;HPM_P2
2023/10/26 00:01:24;;;;;;;27.77;6.88;;;;;;;15.32;100.00;64573.78;5070997;28;20274;-53
2023/10/26 00:03:49;;;;;;;21.60;7.28;;;;;;;15.38;100.00;64577.28;5071308;28;20181;-56
2023/10/26 00:06:15;;;;;;;32.45;8.05;;;;;;;15.42;100.00;64579.72;5071145;28;20224;-57
2023/10/26 00:08:40;;;;;;;32.10;6.95;;;;;;;15.17;100.00;64554.72;5071371;28;20613;-53
2023/10/26 00:11:05;;;;;;;31.48;7.82;;;;;;;15.21;100.00;64561.13;5071261;28;20669;-53
2023/10/26 00:13:31;;;;;;;35.65;7.40;;;;;;;15.15;100.00;64553.06;5071507;28;20409;-51
2023/10/26 00:15:57;;;;;;;29.92;7.97;;;;;;;15.21;100.00;64559.13;5071179;28;20291;-52
2023/10/26 00:18:22;;;;;;;25.13;6.57;;;;;;;15.34;100.00;64575.41;5071127;28;20307;-53
2023/10/26 00:20:49;;;;;;;28.33;6.68;;;;;;;15.28;100.00;64566.28;5071155;28;20208;-54
2023/10/26 00:23:14;;;;;;;34.88;7.43;;;;;;;15.23;100.00;64560.78;5071021;28;20213;-53
2023/10/26 00:25:40;;;;;;;25.52;6.22;;;;;;;15.27;100.00;64565.72;5053417;28;20224;-53
2023/10/26 00:28:05;;;;;;;26.05;7.05;;;;;;;15.07;100.00;64546.81;5071341;28;20287;-57
2023/10/26 00:30:31;;;;;;;23.85;7.00;;;;;;;15.01;100.00;64540.22;5070871;28;20626;-57
2023/10/26 00:32:56;;;;;;;26.98;5.80;;;;;;;15.20;100.00;64557.47;5071139;28;20708;-54
2023/10/26 00:35:22;;;;;;;23.27;7.00;;;;;;;15.12;100.00;64546.69;5071025;28;20174;-54
2023/10/26 00:37:47;;;;;;;26.08;6.53;;;;;;;15.05;100.00;64541.53;5070987;28;20603;-54
2023/10/26 00:40:13;;;;;;;24.35;5.43;;;;;;;15.22;100.00;64560.22;5070907;28;20723;-54
2023/10/26 00:42:38;;;;;;;26.30;6.90;;;;;;;14.95;100.00;64533.06;5052762;28;20594;-54
2023/10/26 00:45:05;;;;;;;22.33;5.72;;;;;;;15.23;100.00;64560.78;5052827;28;20205;-54
2023/10/26 00:47:31;;;;;;;27.42;6.97;;;;;;;15.27;100.00;64568.25;5070400;28;20257;-53
2023/10/26 00:49:58;;;;;;;25.02;5.75;;;;;;;15.13;100.00;64550.88;5070374;28;20738;-53
2023/10/26 00:52:24;;;;;;;17.90;5.45;;;;;;;15.13;100.00;64550.31;5070442;28;20204;-53
2023/10/26 00:54:50;;;;;;;20.42;5.57;;;;;;;15.06;100.00;64543.19;5070648;28;20261;-51
2023/10/26 00:57:19;;;;;;;24.98;6.18;;;;;;;15.08;100.00;64545.41;5070724;28;20269;-52
2023/10/26 00:59:48;;;;;;;15.68;5.32;;;;;;;15.18;100.00;64555.28;5070322;28;20217;-52
2023/10/26 01:02:15;;;;;;;20.75;6.93;;;;;;;15.02;100.00;64538.78;5070345;28;20212;-51
2023/10/26 01:04:40;;;;;;;20.83;5.20;;;;;;;14.91;100.00;64529.22;5070504;28;20177;-52
2023/10/26 01:07:06;;;;;;;22.08;6.25;;;;;;;14.98;100.00;64536.94;5070116;28;20299;-51
2023/10/26 01:09:32;;;;;;;22.17;5.43;;;;;;;15.13;100.00;64552.88;5070394;28;20208;-51
2023/10/26 01:11:57;;;;;;;25.23;5.85;;;;;;;15.27;100.00;64562.66;5070539;28;20229;-51
2023/10/26 01:14:23;;;;;;;24.38;5.93;;;;;;;15.24;100.00;64561.88;5070513;28;20278;-54
2023/10/26 01:16:49;;;;;;;31.92;5.45;;;;;;;15.21;100.00;64559.13;5070365;28;20259;-51
2023/10/26 01:19:14;;;;;;;29.90;6.85;;;;;;;15.18;100.00;64553.28;5070022;28;20220;-51
2023/10/26 01:21:51;;;;;;;21.30;6.22;;;;;;;15.06;100.00;64542.63;5070153;28;20544;-53
2023/10/26 01:24:17;;;;;;;22.02;5.55;;;;;;;14.92;100.00;64527.25;5070293;28;20583;-53
2023/10/26 01:26:42;;;;;;;24.25;5.50;;;;;;;14.69;100.00;64505.06;5070477;28;20236;-53
2023/10/26 01:29:08;;;;;;;24.45;6.10;;;;;;;14.67;100.00;64497.78;5069082;28;20228;-53
2023/10/26 01:31:33;;;;;;;15.70;4.78;;;;;;;14.94;100.00;64532.53;5070049;28;20633;-53
2023/10/26 01:34:00;;;;;;;21.23;4.68;;;;;;;14.68;100.00;64498.88;5070219;28;20691;-54
2023/10/26 01:36:32;;;;;;;20.30;4.97;;;;;;;14.78;100.00;64514.94;5070241;28;20326;-57
2023/10/26 01:39:00;;;;;;;14.75;4.93;;;;;;;14.68;100.00;64503.97;5052238;28;20228;-54
2023/10/26 01:41:25;;;;;;;16.85;5.50;;;;;;;14.79;100.00;64515.50;5069964;28;20315;-51
2023/10/26 01:43:51;;;;;;;13.00;4.43;;;;;;;14.99;100.00;64535.50;5070258;28;20229;-54
2023/10/26 01:46:16;;;;;;;14.70;5.03;;;;;;;15.01;100.00;64537.13;5069896;28;20204;-51
2023/10/26 01:48:41;;;;;;;24.65;6.43;;;;;;;14.98;100.00;64534.41;5070135;28;20232;-53
2023/10/26 01:51:07;;;;;;;33.55;5.85;;;;;;;14.84;100.00;64521.53;5069743;28;20630;-54
2023/10/26 01:53:32;;;;;;;17.25;5.63;;;;;;;14.59;100.00;64494.06;5069860;28;20572;-54
2023/10/26 01:55:58;;;;;;;15.70;4.50;;;;;;;14.58;100.00;64490.44;5069765;28;20602;-53
2023/10/26 01:58:24;;;;;;;17.50;4.93;;;;;;;14.63;100.00;64497.91;5069902;28;20244;-54
2023/10/26 02:00:49;;;;;;;19.15;5.00;;;;;;;14.76;100.00;64510.22;5069581;28;20173;-53
2023/10/26 02:03:15;;;;;;;14.57;4.00;;;;;;;14.76;100.00;64510.22;5072992;28;20626;-50
2023/10/26 02:05:41;;;;;;;24.58;5.38;;;;;;;14.62;100.00;64494.84;5073044;28;20229;-53
2023/10/26 02:08:06;;;;;;;14.68;4.38;;;;;;;14.74;100.00;64510.56;5073261;28;20212;-57
2023/10/26 02:10:32;;;;;;;22.15;5.13;;;;;;;14.97;100.00;64530.75;5073045;28;20203;-54
2023/10/26 02:12:57;;;;;;;19.35;4.22;;;;;;;14.90;100.00;64525.59;5073028;28;20211;-53
2023/10/26 02:15:23;;;;;;;11.48;4.32;;;;;;;14.78;100.00;64514.41;5073089;28;20201;-54
2023/10/26 02:17:49;;;;;;;15.50;4.30;;;;;;;14.88;100.00;64525.94;5072714;28;20223;-56
2023/10/26 02:20:14;;;;;;;17.13;5.57;;;;;;;14.98;100.00;64534.41;5072879;28;20698;-55
2023/10/26 02:22:39;;;;;;;21.05;5.05;;;;;;;14.99;100.00;64538.03;5072671;28;20207;-54
2023/10/26 02:25:06;;;;;;;15.23;4.43;;;;;;;14.74;100.00;64510.56;5072834;28;20212;-53
2023/10/26 02:27:32;;;;;;;16.77;3.95;;;;;;;14.77;100.00;64508.78;5073094;28;20679;-53
2023/10/26 02:29:58;;;;;;;14.45;4.43;;;;;;;14.70;100.00;64503.06;5072681;28;20253;-54
2023/10/26 02:32:23;;;;;;;14.32;4.50;;;;;;;14.84;100.00;64521.53;5072842;28;20211;-54
2023/10/26 02:34:49;;;;;;;11.55;4.65;;;;;;;14.79;100.00;64515.50;5073031;28;20201;-54
2023/10/26 02:37:15;;;;;;;20.10;5.00;;;;;;;14.65;100.00;64498.13;5072497;28;20213;-54
2023/10/26 02:39:41;;;;;;;17.45;4.28;;;;;;;14.73;100.00;64506.34;5054462;28;20339;-60
2023/10/26 02:42:08;;;;;;;14.82;4.00;;;;;;;14.73;100.00;64509.44;5072725;28;20292;-54
2023/10/26 02:44:34;;;;;;;19.00;4.53;;;;;;;14.60;100.00;64495.16;5072627;28;20204;-54
2023/10/26 02:46:59;;;;;;;13.70;3.95;;;;;;;14.68;100.00;64503.97;5072624;28;20675;-57
2023/10/26 02:49:25;;;;;;;11.55;3.92;;;;;;;14.51;100.00;64482.19;5072320;28;20201;-51
2023/10/26 02:51:50;;;;;;;12.38;4.32;;;;;;;14.51;100.00;64482.19;5072480;28;20759;-51
2023/10/26 02:54:15;;;;;;;14.60;4.22;;;;;;;14.48;100.00;64479.44;5072330;28;20216;-50
2023/10/26 02:56:41;;;;;;;14.85;4.25;;;;;;;14.26;100.00;64457.78;5054301;28;20678;-52
2023/10/26 02:59:07;;;;;;;12.70;4.50;;;;;;;14.58;100.00;64492.41;5072516;28;20216;-51
2023/10/26 03:01:36;;;;;;;16.20;4.50;;;;;;;14.53;100.00;64486.91;5072129;28;20599;-51
2023/10/26 03:04:09;;;;;;;11.85;4.90;;;;;;;14.52;100.00;64486.38;5054821;28;20225;-54
2023/10/26 03:06:58;;;;;;;15.15;3.83;;;;;;;14.54;100.00;64486.03;5054096;28;20231;-54
2023/10/26 03:09:29;;;;;;;16.95;4.93;;;;;;;14.71;100.00;64507.25;5051321;28;20224;-53
2023/10/26 03:11:55;;;;;;;14.57;4.13;;;;;;;14.66;100.00;64501.75;5054441;28;20747;-54
2023/10/26 03:14:21;;;;;;;15.43;4.45;;;;;;;14.54;100.00;64485.47;5054555;28;20644;-52
2023/10/26 03:16:48;;;;;;;13.95;4.10;;;;;;;14.66;100.00;64499.22;5054350;28;20297;-51
2023/10/26 03:19:14;;;;;;;12.68;3.40;;;;;;;14.64;100.00;64497.03;5071951;28;20305;-52
2023/10/26 03:21:39;;;;;;;13.65;4.35;;;;;;;14.49;100.00;64483.06;5071679;28;20702;-51
2023/10/26 03:24:05;;;;;;;18.55;4.03;;;;;;;14.53;100.00;64484.94;5072097;28;20205;-51
2023/10/26 03:26:31;;;;;;;7.97;3.53;;;;;;;14.80;100.00;64517.16;5071627;28;20698;-51
2023/10/26 03:29:00;;;;;;;10.38;3.30;;;;;;;14.64;100.00;64499.00;5053847;28;20212;-56
2023/10/26 03:31:25;;;;;;;12.73;3.83;;;;;;;14.74;100.00;64505.47;5071683;28;20204;-53
2023/10/26 03:33:51;;;;;;;11.27;3.55;;;;;;;14.70;100.00;64503.63;5071802;28;20266;-51
2023/10/26 03:36:18;;;;;;;9.32;4.25;;;;;;;14.45;100.00;64478.69;5071595;28;20193;-51
2023/10/26 03:38:44;;;;;;;14.75;4.95;;;;;;;14.63;100.00;64493.38;5053665;28;20220;-51
2023/10/26 03:41:10;;;;;;;12.30;3.80;;;;;;;14.66;100.00;64501.75;5071668;28;20208;-52
2023/10/26 03:43:35;;;;;;;12.95;4.07;;;;;;;14.59;100.00;64493.50;5071735;28;20612;-52
2023/10/26 03:46:24;;;;;;;16.77;4.05;;;;;;;14.81;100.00;64512.59;5071570;28;20215;-53
2023/10/26 03:48:52;;;;;;;14.15;4.38;;;;;;;14.65;100.00;64500.09;5053238;28;20201;-54
2023/10/26 03:51:25;;;;;;;9.85;4.20;;;;;;;14.48;100.00;64478.91;5071665;28;20254;-53
2023/10/26 03:53:54;;;;;;;12.23;4.20;;;;;;;14.58;100.00;64490.44;5053767;28;20217;-53
2023/10/26 03:56:19;;;;;;;17.60;4.57;;;;;;;14.62;100.00;64494.84;5053340;28;20287;-53
2023/10/26 03:58:45;;;;;;;12.82;4.47;;;;;;;14.67;100.00;64502.84;5071269;28;20225;-53
2023/10/26 04:01:17;;;;;;;15.18;4.78;;;;;;;14.47;100.00;64480.88;5071361;28;20211;-53
2023/10/26 04:03:42;;;;;;;19.25;5.47;;;;;;;14.53;100.00;64486.91;5054532;28;20304;-53
2023/10/26 04:06:08;;;;;;;19.73;4.63;;;;;;;14.47;100.00;64480.31;5071264;28;20228;-53
2023/10/26 04:08:33;;;;;;;12.00;4.15;;;;;;;14.49;100.00;64483.06;5071483;28;20197;-54
2023/10/26 04:10:59;;;;;;;12.25;4.03;;;;;;;14.43;100.00;64476.47;5071509;28;20201;-55
2023/10/26 04:13:30;;;;;;;19.88;4.57;;;;;;;14.48;100.00;64481.44;5053541;28;20604;-53
2023/10/26 04:16:02;;;;;;;20.20;4.82;;;;;;;14.58;100.00;64489.88;5053735;28;20219;-52
2023/10/26 04:18:28;;;;;;;14.48;4.35;;;;;;;14.57;100.00;64491.88;5053534;28;20240;-53
2023/10/26 04:20:55;;;;;;;12.18;4.43;;;;;;;14.49;100.00;64479.97;5071548;28;20247;-53
2023/10/26 04:23:21;;;;;;;17.05;4.55;;;;;;;14.67;100.00;64499.75;5053389;28;20212;-54
2023/10/26 04:25:48;;;;;;;12.73;4.00;;;;;;;14.68;100.00;64503.97;5052394;28;20211;-51
2023/10/26 04:28:15;;;;;;;11.45;4.07;;;;;;;14.60;100.00;64492.63;5053223;28;20212;-51
2023/10/26 04:30:40;;;;;;;21.65;4.40;;;;;;;14.43;100.00;64473.38;5071021;28;20196;-53
2023/10/26 04:33:05;;;;;;;20.55;5.20;;;;;;;14.68;100.00;64498.88;5070901;28;20219;-52
2023/10/26 04:35:31;;;;;;;12.32;3.78;;;;;;;14.66;100.00;64501.22;5071111;28;20228;-52
2023/10/26 04:37:56;;;;;;;15.07;4.00;;;;;;;14.68;100.00;64501.44;5071077;28;20226;-51
2023/10/26 04:40:22;;;;;;;12.00;3.20;;;;;;;14.59;100.00;64491.53;5070841;28;20196;-51
2023/10/26 04:42:47;;;;;;;13.65;3.55;;;;;;;14.67;100.00;64502.28;5070715;28;20613;-51
2023/10/26 04:45:13;;;;;;;13.10;3.65;;;;;;;14.53;100.00;64487.47;5070770;28;20177;-52
2023/10/26 04:47:39;;;;;;;17.73;3.90;;;;;;;14.58;100.00;64490.44;5070863;28;20285;-52
2023/10/26 04:50:05;;;;;;;15.77;4.05;;;;;;;14.72;100.00;64505.81;5070796;28;20211;-51
2023/10/26 04:52:32;;;;;;;11.82;3.35;;;;;;;14.64;100.00;64496.47;5070518;28;20209;-53
2023/10/26 04:54:57;;;;;;;13.88;4.35;;;;;;;14.55;100.00;64489.66;5070551;28;20207;-52
2023/10/26 04:57:22;;;;;;;11.88;3.72;;;;;;;14.57;100.00;64491.31;5070469;28;20204;-52
2023/10/26 04:59:48;;;;;;;11.98;3.17;;;;;;;14.80;100.00;64517.16;5052639;28;20274;-51
2023/10/26 05:02:14;;;;;;;19.02;4.18;;;;;;;14.82;100.00;64518.78;5070552;28;20224;-53
2023/10/26 05:04:39;;;;;;;12.40;3.35;;;;;;;14.71;100.00;64507.25;5070783;28;20205;-52
2023/10/26 05:07:05;;;;;;;8.38;3.50;;;;;;;14.67;100.00;64499.75;5070746;28;20670;-52
2023/10/26 05:09:31;;;;;;;15.90;3.55;;;;;;;14.72;100.00;64508.34;5070501;28;20236;-55
2023/10/26 05:11:57;;;;;;;11.85;3.47;;;;;;;15.05;100.00;64542.09;5070520;28;20255;-53
2023/10/26 05:14:23;;;;;;;11.98;5.10;;;;;;;14.77;100.00;64511.31;5070307;28;20185;-54
2023/10/26 05:16:50;;;;;;;11.55;3.97;;;;;;;14.79;100.00;64516.03;5070315;28;20268;-53
2023/10/26 05:19:15;;;;;;;13.32;3.45;;;;;;;15.28;100.00;64568.81;5070147;28;20716;-54
2023/10/26 05:21:41;;;;;;;16.00;3.72;;;;;;;15.18;100.00;64555.28;5070312;28;20209;-53
2023/10/26 05:24:07;;;;;;;14.65;4.38;;;;;;;15.12;100.00;64549.78;5070351;28;20205;-54
2023/10/26 05:26:32;;;;;;;14.10;5.38;;;;;;;15.03;100.00;64539.34;5070300;28;20204;-54
2023/10/26 05:28:58;;;;;;;20.17;4.38;;;;;;;15.15;100.00;64555.63;5052476;28;20216;-54
2023/10/26 05:31:23;;;;;;;17.08;4.90;;;;;;;15.14;100.00;64548.91;5069997;28;20224;-54
2023/10/26 05:33:49;;;;;;;12.63;4.38;;;;;;;15.00;100.00;64536.59;5070113;28;20295;-52
2023/10/26 05:36:15;;;;;;;13.15;4.10;;;;;;;15.11;100.00;64546.16;5070114;28;20232;-54
2023/10/26 05:38:40;;;;;;;14.07;4.22;;;;;;;15.33;100.00;64574.84;5073582;28;20228;-53
2023/10/26 05:41:06;;;;;;;13.07;5.15;;;;;;;15.56;100.00;64594.56;5073218;28;20208;-54
2023/10/26 05:43:31;;;;;;;14.32;4.05;;;;;;;15.37;100.00;64576.72;5073780;28;20197;-55
2023/10/26 05:46:02;;;;;;;12.45;3.90;;;;;;;15.30;100.00;64569.03;5071390;28;20188;-55
2023/10/26 05:48:29;;;;;;;19.73;6.80;;;;;;;15.26;100.00;64564.63;5072557;28;20207;-56
2023/10/26 05:50:55;;;;;;;16.17;5.10;;;;;;;15.94;100.00;64638.91;5073388;28;20204;-54
2023/10/26 05:53:21;;;;;;;12.23;5.00;;;;;;;16.48;100.00;64695.78;5073359;28;20210;-54
2023/10/26 05:55:56;;;;;;;15.40;4.68;;;;;;;16.55;100.00;64706.06;5054379;28;20227;-53
2023/10/26 05:58:21;;;;;;;17.40;4.72;;;;;;;17.31;100.00;64791.75;5071859;28;20211;-54
2023/10/26 06:00:47;;;;;;;18.45;5.47;;;;;;;17.78;100.00;64837.38;5055216;28;20583;-53
2023/10/26 06:03:13;;;;;;;22.23;7.25;;;;;;;17.85;100.00;64845.66;5073187;28;20201;-54
2023/10/26 06:05:38;;;;;;;13.95;4.70;;;;;;;17.93;100.00;64857.03;5073043;28;20205;-53
2023/10/26 06:08:05;;;;;;;13.90;5.50;;;;;;;17.96;100.00;64857.22;5073226;28;20204;-52
2023/10/26 06:10:30;;;;;;;16.58;5.68;;;;;;;17.91;100.00;64854.28;5073111;28;20200;-52
2023/10/26 06:12:56;;;;;;;19.58;6.63;;;;;;;17.84;100.00;64849.09;5073308;28;20258;-52
2023/10/26 06:15:22;;;;;;;16.55;5.70;;;;;;;17.92;100.00;64855.91;5054995;28;20235;-52
2023/10/26 06:17:48;;;;;;;20.13;7.10;;;;;;;17.59;100.00;64819.56;5073104;28;20288;-51
2023/10/26 06:20:14;;;;;;;23.02;6.13;;;;;;;17.05;100.00;64760.03;5073062;28;20759;-51
2023/10/26 06:22:39;;;;;;;22.92;7.60;;;;;;;16.47;100.00;64699.78;5073133;28;20204;-54
2023/10/26 06:25:05;;;;;;;21.90;6.82;;;;;;;16.45;100.00;64695.03;5072987;28;20636;-53
2023/10/26 06:27:31;;;;;;;22.00;6.55;;;;;;;16.21;100.00;64668.06;5073150;28;20212;-54
2023/10/26 06:29:57;;;;;;;21.83;6.80;;;;;;;16.38;100.00;64687.31;5054879;28;20209;-54
2023/10/26 06:32:23;;;;;;;15.23;6.65;;;;;;;16.01;100.00;64643.50;5072703;28;20197;-54
2023/10/26 06:34:50;;;;;;;16.65;6.65;;;;;;;16.26;100.00;64671.56;5072921;28;20663;-54
2023/10/26 06:37:17;;;;;;;17.13;6.25;;;;;;;16.08;100.00;64656.84;5072922;28;20205;-55
2023/10/26 06:39:42;;;;;;;18.13;5.35;;;;;;;16.24;100.00;64668.84;5072743;28;20217;-54
2023/10/26 06:42:08;;;;;;;17.30;5.90;;;;;;;16.25;100.00;64672.47;5072675;28;20208;-54
2023/10/26 06:44:34;;;;;;;18.75;6.53;;;;;;;16.40;100.00;64689.00;5072734;28;20201;-51
2023/10/26 06:46:59;;;;;;;19.60;6.00;;;;;;;16.44;100.00;64696.47;5072484;28;20582;-55
2023/10/26 06:49:25;;;;;;;21.05;6.30;;;;;;;16.74;100.00;64724.44;5072071;28;20270;-51
2023/10/26 06:51:50;;;;;;;23.85;5.35;;;;;;;16.97;100.00;64751.75;5072608;28;20208;-51
2023/10/26 06:54:16;;;;;;;16.75;5.30;;;;;;;16.69;100.00;64718.38;5072463;28;20596;-51
2023/10/26 06:56:44;;;;;;;14.05;4.35;;;;;;;16.76;100.00;64728.66;5072357;28;20262;-50
2023/10/26 06:59:09;;;;;;;26.52;7.32;;;;;;;16.84;100.00;64734.34;5072060;28;20216;-54
2023/10/26 07:01:35;;;;;;;18.77;6.68;;;;;;;17.01;100.00;64753.09;5072223;28;20216;-54
2023/10/26 07:04:01;;;;;;;11.70;4.38;;;;;;;17.26;100.00;64783.16;5072220;28;20288;-54
2023/10/26 07:06:26;;;;;;;12.57;4.20;;;;;;;17.31;100.00;64791.75;5071950;28;20203;-58
2023/10/26 07:08:58;;;;;;;14.65;4.53;;;;;;;17.08;100.00;64763.34;5072083;28;20280;-53
2023/10/26 07:11:24;;;;;;;24.33;7.32;;;;;;;16.88;100.00;64744.41;5071883;28;20205;-54
2023/10/26 07:13:49;;;;;;;25.25;7.97;;;;;;;16.96;100.00;64747.56;5072243;28;20504;-54
2023/10/26 07:16:15;;;;;;;25.33;6.25;;;;;;;17.04;100.00;64761.47;5071987;28;20219;-54
2023/10/26 07:18:40;;;;;;;18.80;6.85;;;;;;;17.28;100.00;64785.91;5071867;28;20227;-55
2023/10/26 07:21:07;;;;;;;16.33;5.75;;;;;;;17.29;100.00;64783.94;5071827;28;20193;-56
2023/10/26 07:23:33;;;;;;;19.45;6.07;;;;;;;17.24;100.00;64776.41;5054126;28;20199;-59
2023/10/26 07:25:59;;;;;;;14.60;5.82;;;;;;;17.46;100.00;64805.19;5053960;28;20265;-55
2023/10/26 07:28:24;;;;;;;14.57;5.30;;;;;;;17.38;100.00;64796.94;5053664;28;20302;-58
2023/10/26 07:30:53;;;;;;;11.75;4.45;;;;;;;16.99;100.00;64755.97;5071887;28;20639;-54
2023/10/26 07:33:19;;;;;;;19.85;5.90;;;;;;;17.06;100.00;64758.59;5071620;28;20212;-56
2023/10/26 07:35:50;;;;;;;14.63;5.53;;;;;;;17.25;100.00;64780.06;5053869;28;20203;-55
2023/10/26 07:38:16;;;;;;;14.65;5.95;;;;;;;17.18;100.00;64772.34;5053762;28;20220;-55
2023/10/26 07:40:48;;;;;;;16.88;5.38;;;;;;;17.52;100.00;64811.84;5071630;28;20647;-56
2023/10/26 07:43:14;;;;;;;28.13;6.30;;;;;;;17.27;100.00;64782.25;5071700;28;20204;-57
2023/10/26 07:45:40;;;;;;;19.20;5.93;;;;;;;17.18;100.00;64772.34;5071790;28;20325;-55
2023/10/26 07:48:07;;;;;;;23.77;5.53;;;;;;;17.48;100.00;64804.84;5071811;28;20212;-55
2023/10/26 07:50:32;;;;;;;17.33;5.22;;;;;;;17.52;100.00;64809.84;5071502;28;20242;-56
2023/10/26 07:52:58;;;;;;;19.35;6.20;;;;;;;17.18;100.00;64777.44;5071583;28;20700;-59
2023/10/26 07:55:24;;;;;;;18.20;5.57;;;;;;;16.99;100.00;64751.41;5071747;28;20208;-57
2023/10/26 07:57:50;;;;;;;18.20;5.50;;;;;;;17.01;100.00;64753.63;5071217;28;20212;-55
2023/10/26 08:00:16;;;;;;;23.40;6.25;;;;;;;17.19;100.00;64775.47;5070360;28;20287;-55
2023/10/26 08:02:42;;;;;;;17.08;6.28;;;;;;;17.16;100.00;64769.59;5071659;28;20209;-57
2023/10/26 08:05:09;;;;;;;18.83;6.80;;;;;;;17.37;100.00;64795.28;5053356;28;20215;-53
2023/10/26 08:07:36;;;;;;;19.70;6.55;;;;;;;17.33;100.00;64790.88;5071535;28;20212;-54
2023/10/26 08:10:04;;;;;;;19.48;8.27;;;;;;;17.34;100.00;64786.88;5053326;28;20173;-53
2023/10/26 08:12:30;;;;;;;21.48;8.25;;;;;;;17.24;100.00;64780.97;5053169;28;20219;-53
2023/10/26 08:14:57;;;;;;;27.30;7.90;;;;;;;17.77;100.00;64836.84;5071286;28;20197;-54
2023/10/26 08:17:25;;;;;;;23.75;7.85;;;;;;;17.83;100.00;64845.44;5071308;28;20284;-54
2023/10/26 08:19:55;;;;;;;20.23;6.18;;;;;;;17.71;100.00;64832.22;5071127;28;20212;-55
2023/10/26 08:22:23;;;;;;;19.48;6.03;;;;;;;17.80;100.00;64842.13;5052753;28;20244;-53
2023/10/26 08:24:49;;;;;;;14.50;6.22;;;;;;;17.92;100.00;64855.91;5071064;28;20204;-53
2023/10/26 08:27:14;;;;;;;14.15;6.05;;;;;;;17.76;100.00;64837.72;5071223;28;20287;-54
2023/10/26 08:29:40;;;;;;;18.55;6.60;;;;;;;17.65;100.00;64823.06;5071013;28;20589;-55
2023/10/26 08:32:05;;;;;;;18.33;6.70;;;;;;;18.04;100.00;64864.06;5071207;28;20203;-53
2023/10/26 08:34:31;;;;;;;16.13;6.43;;;;;;;18.21;100.00;64887.91;5053079;28;20236;-54
2023/10/26 08:36:59;;;;;;;19.02;7.05;;;;;;;18.27;100.00;64894.53;5053034;28;20615;-53
2023/10/26 08:39:25;;;;;;;13.25;5.78;;;;;;;18.42;100.00;64908.50;5070885;28;20246;-54
2023/10/26 08:41:50;;;;;;;21.02;5.75;;;;;;;18.73;100.00;64941.63;5095006;22;20311;-54
2023/10/26 08:44:20;;;;;;;13.65;5.15;;;;;;;19.16;100.00;64989.63;5072733;28;20650;-54
2023/10/26 08:46:48;;;;;;;18.00;5.45;;;;;;;18.95;100.00;64965.88;5085533;28;20209;-54
2023/10/26 08:49:15;;;;;;;15.75;5.15;;;;;;;18.88;100.00;64958.19;5070663;28;20291;-54
2023/10/26 08:51:42;;;;;;;16.38;4.82;;;;;;;19.19;100.00;64992.38;5052595;28;20223;-55
2023/10/26 08:54:08;;;;;;;16.92;5.40;;;;;;;19.08;100.00;64983.34;5070702;28;20189;-56
2023/10/26 08:56:33;;;;;;;14.82;4.80;;;;;;;18.78;100.00;64947.69;5070896;28;20658;-54
2023/10/26 08:58:59;;;;;;;22.67;6.93;;;;;;;19.13;100.00;64985.75;5052613;28;20216;-53
2023/10/26 09:01:25;;;;;;;12.80;4.10;;;;;;;18.86;100.00;64961.63;5070705;28;20208;-53
2023/10/26 09:03:51;;;;;;;9.85;4.30;;;;;;;18.88;100.00;64958.72;5095446;22;20231;-54
2023/10/26 09:06:17;;;;;;;17.33;4.88;;;;;;;18.83;100.00;64952.66;5089129;28;20192;-56
2023/10/26 09:08:43;;;;;;;10.43;4.50;;;;;;;18.88;100.00;64956.19;5052297;28;20581;-53
2023/10/26 09:11:25;;;;;;;20.20;6.45;;;;;;;20.04;100.00;65085.69;5071550;28;20189;-54
2023/10/26 09:13:52;;;;;;;14.65;5.32;;;;;;;21.20;97.15;65213.41;5074158;28;20227;-53
2023/10/26 09:16:34;;;;;;;14.65;4.35;;;;;;;22.17;89.32;65319.63;5074030;28;20196;-53
2023/10/26 09:18:59;;;;;;;12.52;4.53;;;;;;;22.64;89.79;65371.69;5055848;28;20216;-56
2023/10/26 09:21:24;;;;;;;18.95;5.03;;;;;;;22.93;87.96;65403.22;5073814;28;20201;-55
2023/10/26 09:23:50;;;;;;;12.25;4.35;;;;;;;23.12;88.18;65424.84;5073798;28;20228;-57
2023/10/26 09:26:16;;;;;;;12.48;3.95;;;;;;;23.43;89.40;65458.66;5073671;28;20207;-57
2023/10/26 09:28:56;;;;;;;20.45;5.07;;;;;;;23.80;87.79;65501.66;5073661;28;20637;-61
2023/10/26 09:31:23;;;;;;;15.10;4.53;;;;;;;24.15;89.97;65537.91;5073368;28;20220;-56
2023/10/26 09:33:49;;;;;;;11.40;5.03;;;;;;;24.28;80.21;65552.31;5073583;28;20179;-57
2023/10/26 09:36:17;;;;;;;12.60;5.57;;;;;;;24.50;80.53;65576.19;5055724;28;20239;-61
2023/10/26 09:38:43;;;;;;;11.80;3.67;;;;;;;24.37;76.52;65562.31;5073717;28;20220;-58
2023/10/26 09:41:15;;;;;;;16.55;3.63;;;;;;;24.48;75.74;65573.97;5073599;28;20276;-59
2023/10/26 09:43:41;;;;;;;9.55;3.83;;;;;;;24.56;71.82;65582.84;5073766;28;20200;-64
2023/10/26 09:46:11;;;;;;;16.27;4.10;;;;;;;24.15;70.39;65538.47;5055578;28;20189;-57
2023/10/26 09:48:36;;;;;;;15.48;3.75;;;;;;;23.68;72.43;65491.50;5073594;28;20200;-57
2023/10/26 09:51:04;;;;;;;15.68;3.70;;;;;;;23.70;74.45;65488.00;5073370;28;20208;-57
2023/10/26 09:53:38;;;;;;;13.77;3.78;;;;;;;23.07;75.03;65418.75;5073332;28;20269;-60
2023/10/26 09:56:08;;;;;;;12.82;4.32;;;;;;;22.83;80.27;65392.72;5073160;28;20198;-55
2023/10/26 09:58:39;;;;;;;15.55;4.65;;;;;;;23.12;80.71;65424.84;5073594;28;20265;-55
2023/10/26 10:01:37;;;;;;;11.48;3.63;;;;;;;23.33;68.62;65445.00;5073147;28;20208;-55
2023/10/26 10:04:09;;;;;;;9.18;3.25;;;;;;;23.00;66.86;65411.56;5073288;28;20677;-55
2023/10/26 10:06:55;;;;;;;17.92;3.78;;;;;;;22.68;68.76;65376.13;5073206;28;20259;-54
2023/10/26 10:09:26;;;;;;;10.48;3.30;;;;;;;22.50;64.80;65356.16;5072413;28;20207;-56
2023/10/26 10:12:03;;;;;;;11.65;3.17;;;;;;;22.62;65.56;65368.91;5071755;28;20266;-55
2023/10/26 10:14:47;;;;;;;14.57;3.53;;;;;;;22.68;68.98;65375.56;5073115;28;20288;-56
2023/10/26 10:17:14;;;;;;;10.23;2.97;;;;;;;22.11;66.62;65313.00;5072817;28;20299;-56
2023/10/26 10:19:48;;;;;;;9.80;3.17;;;;;;;21.96;69.12;65296.94;5054718;28;20228;-57
2023/10/26 10:22:39;;;;;;;8.80;2.92;;;;;;;21.75;73.83;65274.22;5070292;28;20678;-57
2023/10/26 10:25:05;;;;;;;7.90;2.88;;;;;;;21.83;63.93;65282.56;5071826;28;20701;-57
2023/10/26 10:27:32;;;;;;;12.13;2.78;;;;;;;21.69;58.96;65267.59;5072450;28;20663;-56
2023/10/26 10:29:59;;;;;;;9.20;2.17;;;;;;;21.51;57.16;65247.69;5072891;28;20189;-57
2023/10/26 10:32:42;;;;;;;7.15;2.35;;;;;;;21.14;55.84;65206.78;5072788;28;20299;-55
2023/10/26 10:35:09;;;;;;;5.88;2.00;;;;;;;20.95;58.78;65182.63;5072782;28;20197;-54
2023/10/26 10:37:36;;;;;;;7.47;1.90;;;;;;;20.82;56.44;65171.94;5072493;28;20211;-56
2023/10/26 10:40:13;;;;;;;9.25;1.92;;;;;;;20.86;56.64;65178.91;5072547;28;20690;-54
2023/10/26 10:42:45;;;;;;;5.93;1.95;;;;;;;21.25;56.05;65218.94;5072488;28;20215;-58
2023/10/26 10:45:12;;;;;;;7.57;1.85;;;;;;;21.60;56.61;65260.22;5072679;28;20205;-55
2023/10/26 10:47:41;;;;;;;6.45;2.38;;;;;;;21.13;57.37;65205.13;5072861;28;20634;-54
2023/10/26 10:50:24;;;;;;;5.90;2.10;;;;;;;21.33;57.25;65227.78;5072416;28;20197;-54
2023/10/26 10:52:54;;;;;;;8.98;2.55;;;;;;;21.49;58.66;65250.59;5093258;22;20234;-55
2023/10/26 10:55:22;;;;;;;5.38;2.00;;;;;;;21.40;57.09;65237.53;5092665;28;20200;-54
2023/10/26 10:58:01;;;;;;;9.68;2.20;;;;;;;21.37;55.83;65232.19;5078019;28;20216;-54
2023/10/26 11:00:51;;;;;;;9.75;2.15;;;;;;;21.84;56.16;65283.09;5072302;28;20205;-54
2023/10/26 11:03:21;;;;;;;10.07;2.40;;;;;;;21.80;56.42;65279.22;5072428;28;20215;-54
2023/10/26 11:05:47;;;;;;;10.35;2.80;;;;;;;21.66;55.56;65261.72;5072327;28;20207;-53
2023/10/26 11:08:12;;;;;;;7.25;2.28;;;;;;;21.61;54.81;65258.75;5072191;28;20641;-53
2023/10/26 11:10:38;;;;;;;3.85;1.80;;;;;;;21.56;56.86;65250.66;5072436;28;20227;-54
2023/10/26 11:13:05;;;;;;;5.88;2.30;;;;;;;21.51;57.22;65247.16;5072175;28;20751;-54
2023/10/26 11:15:35;;;;;;;5.10;2.13;;;;;;;21.66;54.53;65261.72;5072136;28;20602;-57
2023/10/26 11:18:01;;;;;;;4.70;2.05;;;;;;;21.69;53.81;65270.16;5072094;28;20706;-55
2023/10/26 11:20:37;;;;;;;4.97;2.00;;;;;;;22.22;56.54;65325.72;5072200;28;20314;-55